sensor_id;sensor_type;location;lat;lon;timestamp;pressure;altitude;pressure_sealevel;temperature;humidity
49645;BME280;36494;50.730;-1.932;2024-03-02T00:01:50;98317.76;;;5.09;100.00
49645;BME280;36494;50.730;-1.932;2024-03-02T00:04:15;98312.77;;;5.08;100.00
49645;BME280;36494;50.730;-1.932;2024-03-02T00:06:41;98306.57;;;5.09;100.00
49645;BME280;36494;50.730;-1.932;2024-03-02T00:09:09;98306.57;;;5.16;100.00
49645;BME280;36494;50.730;-1.932;2024-03-02T00:11:35;98308.43;;;5.15;100.00
49645;BME280;36494;50.730;-1.932;2024-03-02T00:13:58;98310.38;;;5.20;100.00
49645;BME280;36494;50.730;-1.932;2024-03-02T00:16:23;98317.23;;;5.22;100.00
49645;BME280;36494;50.730;-1.932;2024-03-02T00:18:49;98326.66;;;5.13;100.00
49645;BME280;36494;50.730;-1.932;2024-03-02T00:21:14;98319.35;;;4.97;100.00
49645;BME280;36494;50.730;-1.932;2024-03-02T00:23:44;98325.18;;;4.87;100.00
49645;BME280;36494;50.730;-1.932;2024-03-02T00:26:07;98323.90;;;4.83;100.00
49645;BME280;36494;50.730;-1.932;2024-03-02T00:28:33;98333.96;;;4.77;100.00
49645;BME280;36494;50.730;-1.932;2024-03-02T00:30:59;98326.06;;;4.72;100.00
49645;BME280;36494;50.730;-1.932;2024-03-02T00:33:26;98320.70;;;4.65;100.00
49645;BME280;36494;50.730;-1.932;2024-03-02T00:35:50;98322.62;;;4.62;100.00
49645;BME280;36494;50.730;-1.932;2024-03-02T00:38:15;98316.81;;;4.59;100.00
49645;BME280;36494;50.730;-1.932;2024-03-02T00:40:41;98316.81;;;4.69;100.00
49645;BME280;36494;50.730;-1.932;2024-03-02T00:43:11;98320.82;;;4.69;100.00
49645;BME280;36494;50.730;-1.932;2024-03-02T00:45:32;98318.32;;;4.69;100.00
49645;BME280;36494;50.730;-1.932;2024-03-02T00:47:57;98323.45;;;4.72;100.00
49645;BME280;36494;50.730;-1.932;2024-03-02T00:50:24;98323.59;;;4.68;100.00
49645;BME280;36494;50.730;-1.932;2024-03-02T00:52:49;98319.87;;;4.57;100.00
49645;BME280;36494;50.730;-1.932;2024-03-02T00:55:15;98322.23;;;4.53;100.00
49645;BME280;36494;50.730;-1.932;2024-03-02T00:57:41;98328.06;;;4.42;100.00
49645;BME280;36494;50.730;-1.932;2024-03-02T01:00:09;98309.63;;;4.29;100.00
49645;BME280;36494;50.730;-1.932;2024-03-02T01:02:32;98300.49;;;4.19;100.00
49645;BME280;36494;50.730;-1.932;2024-03-02T01:04:58;98306.16;;;4.15;100.00
49645;BME280;36494;50.730;-1.932;2024-03-02T01:07:23;98300.97;;;4.06;100.00
49645;BME280;36494;50.730;-1.932;2024-03-02T01:09:49;98299.84;;;4.00;100.00
49645;BME280;36494;50.730;-1.932;2024-03-02T01:12:15;98287.69;;;3.96;100.00
49645;BME280;36494;50.730;-1.932;2024-03-02T01:14:40;98265.56;;;3.98;100.00
49645;BME280;36494;50.730;-1.932;2024-03-02T01:17:07;98260.56;;;4.07;100.00
49645;BME280;36494;50.730;-1.932;2024-03-02T01:19:33;98261.24;;;4.10;100.00
49645;BME280;36494;50.730;-1.932;2024-03-02T01:21:58;98261.27;;;4.09;100.00
49645;BME280;36494;50.730;-1.932;2024-03-02T01:24:23;98258.87;;;4.15;100.00
49645;BME280;36494;50.730;-1.932;2024-03-02T01:26:49;98255.49;;;4.15;100.00
49645;BME280;36494;50.730;-1.932;2024-03-02T01:29:15;98245.95;;;4.10;100.00
49645;BME280;36494;50.730;-1.932;2024-03-02T01:31:40;98244.13;;;4.12;100.00
49645;BME280;36494;50.730;-1.932;2024-03-02T01:34:06;98243.92;;;4.20;100.00
49645;BME280;36494;50.730;-1.932;2024-03-02T01:36:31;98235.22;;;4.24;100.00
49645;BME280;36494;50.730;-1.932;2024-03-02T01:38:57;98230.18;;;4.30;100.00
49645;BME280;36494;50.730;-1.932;2024-03-02T01:41:23;98227.62;;;4.44;100.00
49645;BME280;36494;50.730;-1.932;2024-03-02T01:43:48;98223.05;;;4.56;100.00
49645;BME280;36494;50.730;-1.932;2024-03-02T01:46:14;98212.95;;;4.70;100.00
49645;BME280;36494;50.730;-1.932;2024-03-02T01:48:42;98216.57;;;4.79;100.00
49645;BME280;36494;50.730;-1.932;2024-03-02T01:51:05;98201.62;;;4.95;100.00
49645;BME280;36494;50.730;-1.932;2024-03-02T01:53:30;98189.09;;;5.09;100.00
49645;BME280;36494;50.730;-1.932;2024-03-02T01:55:56;98196.47;;;5.16;100.00
49645;BME280;36494;50.730;-1.932;2024-03-02T01:58:23;98179.29;;;5.10;100.00
49645;BME280;36494;50.730;-1.932;2024-03-02T02:00:50;98181.57;;;5.12;100.00
49645;BME280;36494;50.730;-1.932;2024-03-02T02:03:14;98167.82;;;5.18;100.00
49645;BME280;36494;50.730;-1.932;2024-03-02T02:05:42;98166.50;;;5.24;100.00
49645;BME280;36494;50.730;-1.932;2024-03-02T02:08:05;98160.62;;;5.31;100.00
49645;BME280;36494;50.730;-1.932;2024-03-02T02:10:31;98145.57;;;5.35;100.00
49645;BME280;36494;50.730;-1.932;2024-03-02T02:12:56;98135.67;;;5.37;100.00
49645;BME280;36494;50.730;-1.932;2024-03-02T02:15:25;98134.52;;;5.39;100.00
49645;BME280;36494;50.730;-1.932;2024-03-02T02:17:47;98126.10;;;5.44;100.00
49645;BME280;36494;50.730;-1.932;2024-03-02T02:20:12;98113.03;;;5.43;100.00
49645;BME280;36494;50.730;-1.932;2024-03-02T02:22:38;98095.70;;;5.46;100.00
49645;BME280;36494;50.730;-1.932;2024-03-02T02:25:07;98097.32;;;5.50;100.00
49645;BME280;36494;50.730;-1.932;2024-03-02T02:27:29;98084.66;;;5.53;100.00
49645;BME280;36494;50.730;-1.932;2024-03-02T02:29:54;98081.11;;;5.58;100.00
49645;BME280;36494;50.730;-1.932;2024-03-02T02:32:20;98085.73;;;5.64;100.00
49645;BME280;36494;50.730;-1.932;2024-03-02T02:34:47;98092.13;;;5.70;100.00
49645;BME280;36494;50.730;-1.932;2024-03-02T02:37:14;98101.41;;;5.70;100.00
49645;BME280;36494;50.730;-1.932;2024-03-02T02:39:38;98092.36;;;5.33;100.00
49645;BME280;36494;50.730;-1.932;2024-03-02T02:42:04;98072.08;;;5.01;100.00
49645;BME280;36494;50.730;-1.932;2024-03-02T02:44:29;98082.07;;;5.10;100.00
49645;BME280;36494;50.730;-1.932;2024-03-02T02:46:55;98066.30;;;4.97;100.00
49645;BME280;36494;50.730;-1.932;2024-03-02T02:49:24;98051.98;;;4.96;100.00
49645;BME280;36494;50.730;-1.932;2024-03-02T02:51:46;98068.55;;;4.96;100.00
49645;BME280;36494;50.730;-1.932;2024-03-02T02:54:12;98063.34;;;4.94;100.00
49645;BME280;36494;50.730;-1.932;2024-03-02T02:56:37;98049.21;;;4.76;100.00
49645;BME280;36494;50.730;-1.932;2024-03-02T02:59:03;98008.42;;;4.55;100.00
49645;BME280;36494;50.730;-1.932;2024-03-02T03:01:29;98018.74;;;4.59;100.00
49645;BME280;36494;50.730;-1.932;2024-03-02T03:03:55;97997.80;;;4.65;100.00
49645;BME280;36494;50.730;-1.932;2024-03-02T03:06:21;98015.20;;;4.78;100.00
49645;BME280;36494;50.730;-1.932;2024-03-02T03:08:46;98024.71;;;4.72;100.00
49645;BME280;36494;50.730;-1.932;2024-03-02T03:11:12;98033.41;;;4.52;100.00
49645;BME280;36494;50.730;-1.932;2024-03-02T03:13:41;98030.53;;;4.51;100.00
49645;BME280;36494;50.730;-1.932;2024-03-02T03:16:04;98031.21;;;4.53;100.00
49645;BME280;36494;50.730;-1.932;2024-03-02T03:18:29;98033.43;;;4.55;100.00
49645;BME280;36494;50.730;-1.932;2024-03-02T03:20:55;98035.58;;;4.65;100.00
49645;BME280;36494;50.730;-1.932;2024-03-02T03:23:20;98029.94;;;4.65;100.00
49645;BME280;36494;50.730;-1.932;2024-03-02T03:25:49;98020.55;;;4.67;100.00
49645;BME280;36494;50.730;-1.932;2024-03-02T03:28:12;98026.36;;;4.72;100.00
49645;BME280;36494;50.730;-1.932;2024-03-02T03:30:38;98028.72;;;4.75;100.00
49645;BME280;36494;50.730;-1.932;2024-03-02T03:33:04;98026.17;;;4.75;100.00
49645;BME280;36494;50.730;-1.932;2024-03-02T03:35:29;98028.69;;;4.72;100.00
49645;BME280;36494;50.730;-1.932;2024-03-02T03:37:58;98031.13;;;4.64;100.00
49645;BME280;36494;50.730;-1.932;2024-03-02T03:40:20;98030.18;;;4.68;100.00
49645;BME280;36494;50.730;-1.932;2024-03-02T03:42:46;98030.17;;;4.68;100.00
49645;BME280;36494;50.730;-1.932;2024-03-02T03:45:11;98030.48;;;4.64;100.00
49645;BME280;36494;50.730;-1.932;2024-03-02T03:47:37;98033.63;;;4.54;100.00
49645;BME280;36494;50.730;-1.932;2024-03-02T03:50:03;98031.29;;;4.46;100.00
49645;BME280;36494;50.730;-1.932;2024-03-02T03:52:28;98030.04;;;4.46;100.00
49645;BME280;36494;50.730;-1.932;2024-03-02T03:54:54;98032.47;;;4.39;100.00
49645;BME280;36494;50.730;-1.932;2024-03-02T03:57:19;98032.43;;;4.34;100.00
49645;BME280;36494;50.730;-1.932;2024-03-02T03:59:45;98031.30;;;4.29;100.00
49645;BME280;36494;50.730;-1.932;2024-03-02T04:02:12;98031.34;;;4.18;100.00
49645;BME280;36494;50.730;-1.932;2024-03-02T04:04:37;98036.51;;;4.16;100.00
49645;BME280;36494;50.730;-1.932;2024-03-02T04:07:03;98036.02;;;4.13;100.00
49645;BME280;36494;50.730;-1.932;2024-03-02T04:09:29;98039.34;;;4.15;100.00
49645;BME280;36494;50.730;-1.932;2024-03-02T04:11:54;98048.34;;;3.87;100.00
49645;BME280;36494;50.730;-1.932;2024-03-02T04:14:20;98052.17;;;3.95;100.00
49645;BME280;36494;50.730;-1.932;2024-03-02T04:16:46;98055.27;;;3.98;100.00
49645;BME280;36494;50.730;-1.932;2024-03-02T04:19:11;98062.76;;;3.82;100.00
49645;BME280;36494;50.730;-1.932;2024-03-02T04:21:37;98062.02;;;3.74;100.00
49645;BME280;36494;50.730;-1.932;2024-03-02T04:24:03;98063.38;;;3.64;100.00
49645;BME280;36494;50.730;-1.932;2024-03-02T04:26:29;98071.20;;;3.50;100.00
49645;BME280;36494;50.730;-1.932;2024-03-02T04:28:55;98073.87;;;3.45;100.00
49645;BME280;36494;50.730;-1.932;2024-03-02T04:31:21;98080.50;;;3.52;100.00
49645;BME280;36494;50.730;-1.932;2024-03-02T04:33:46;98088.83;;;3.47;100.00
49645;BME280;36494;50.730;-1.932;2024-03-02T04:36:12;98088.59;;;3.32;100.00
49645;BME280;36494;50.730;-1.932;2024-03-02T04:38:38;98092.19;;;3.41;100.00
49645;BME280;36494;50.730;-1.932;2024-03-02T04:41:03;98092.23;;;3.23;100.00
49645;BME280;36494;50.730;-1.932;2024-03-02T04:43:28;98096.06;;;3.16;100.00
49645;BME280;36494;50.730;-1.932;2024-03-02T04:45:54;98102.25;;;3.02;100.00
49645;BME280;36494;50.730;-1.932;2024-03-02T04:48:20;98105.15;;;2.96;100.00
49645;BME280;36494;50.730;-1.932;2024-03-02T04:50:46;98105.98;;;2.86;100.00
49645;BME280;36494;50.730;-1.932;2024-03-02T04:53:11;98108.42;;;2.95;100.00
49645;BME280;36494;50.730;-1.932;2024-03-02T04:55:38;98112.46;;;2.57;100.00
49645;BME280;36494;50.730;-1.932;2024-03-02T04:58:04;98118.49;;;2.50;100.00
49645;BME280;36494;50.730;-1.932;2024-03-02T05:00:29;98123.48;;;2.38;100.00
49645;BME280;36494;50.730;-1.932;2024-03-02T05:02:57;98130.07;;;2.46;100.00
49645;BME280;36494;50.730;-1.932;2024-03-02T05:05:21;98141.32;;;2.26;100.00
49645;BME280;36494;50.730;-1.932;2024-03-02T05:07:46;98146.92;;;2.13;100.00
49645;BME280;36494;50.730;-1.932;2024-03-02T05:10:12;98156.61;;;2.11;100.00
49645;BME280;36494;50.730;-1.932;2024-03-02T05:12:38;98163.01;;;1.85;100.00
49645;BME280;36494;50.730;-1.932;2024-03-02T05:15:04;98163.91;;;1.88;100.00
49645;BME280;36494;50.730;-1.932;2024-03-02T05:17:29;98169.36;;;1.90;100.00
49645;BME280;36494;50.730;-1.932;2024-03-02T05:19:56;98172.26;;;1.84;100.00
49645;BME280;36494;50.730;-1.932;2024-03-02T05:22:21;98175.98;;;1.69;100.00
49645;BME280;36494;50.730;-1.932;2024-03-02T05:24:47;98182.48;;;1.81;100.00
49645;BME280;36494;50.730;-1.932;2024-03-02T05:27:13;98192.70;;;1.76;100.00
49645;BME280;36494;50.730;-1.932;2024-03-02T05:29:39;98201.81;;;1.83;100.00
49645;BME280;36494;50.730;-1.932;2024-03-02T05:32:04;98207.10;;;1.85;100.00
49645;BME280;36494;50.730;-1.932;2024-03-02T05:34:30;98207.95;;;1.77;100.00
49645;BME280;36494;50.730;-1.932;2024-03-02T05:36:56;98213.60;;;1.66;100.00
49645;BME280;36494;50.730;-1.932;2024-03-02T05:39:25;98216.86;;;1.70;100.00
49645;BME280;36494;50.730;-1.932;2024-03-02T05:41:47;98218.67;;;1.70;100.00
49645;BME280;36494;50.730;-1.932;2024-03-02T05:44:14;98224.68;;;1.71;100.00
49645;BME280;36494;50.730;-1.932;2024-03-02T05:46:39;98230.24;;;1.65;100.00
49645;BME280;36494;50.730;-1.932;2024-03-02T05:49:05;98234.49;;;1.69;100.00
49645;BME280;36494;50.730;-1.932;2024-03-02T05:51:31;98234.59;;;1.70;100.00
49645;BME280;36494;50.730;-1.932;2024-03-02T05:53:57;98234.18;;;1.65;100.00
49645;BME280;36494;50.730;-1.932;2024-03-02T05:56:22;98235.38;;;1.71;100.00
49645;BME280;36494;50.730;-1.932;2024-03-02T05:58:48;98238.39;;;1.63;100.00
49645;BME280;36494;50.730;-1.932;2024-03-02T06:01:14;98245.16;;;1.50;100.00
49645;BME280;36494;50.730;-1.932;2024-03-02T06:03:40;98249.28;;;1.50;100.00
49645;BME280;36494;50.730;-1.932;2024-03-02T06:06:05;98255.69;;;1.53;100.00
49645;BME280;36494;50.730;-1.932;2024-03-02T06:08:32;98258.57;;;1.50;100.00
49645;BME280;36494;50.730;-1.932;2024-03-02T06:10:58;98262.88;;;1.60;100.00
49645;BME280;36494;50.730;-1.932;2024-03-02T06:13:23;98268.12;;;1.63;100.00
49645;BME280;36494;50.730;-1.932;2024-03-02T06:15:49;98268.60;;;1.70;100.00
49645;BME280;36494;50.730;-1.932;2024-03-02T06:18:15;98272.34;;;1.69;100.00
49645;BME280;36494;50.730;-1.932;2024-03-02T06:20:40;98276.71;;;1.66;100.00
49645;BME280;36494;50.730;-1.932;2024-03-02T06:23:06;98278.73;;;1.77;100.00
49645;BME280;36494;50.730;-1.932;2024-03-02T06:25:32;98280.98;;;1.76;100.00
49645;BME280;36494;50.730;-1.932;2024-03-02T06:27:59;98282.48;;;1.72;100.00
49645;BME280;36494;50.730;-1.932;2024-03-02T06:30:23;98281.58;;;1.76;100.00
49645;BME280;36494;50.730;-1.932;2024-03-02T06:32:50;98285.52;;;1.83;100.00
49645;BME280;36494;50.730;-1.932;2024-03-02T06:35:16;98286.27;;;1.94;100.00
49645;BME280;36494;50.730;-1.932;2024-03-02T06:37:41;98285.94;;;1.96;100.00
49645;BME280;36494;50.730;-1.932;2024-03-02T06:40:09;98291.91;;;1.90;100.00
49645;BME280;36494;50.730;-1.932;2024-03-02T06:42:33;98293.16;;;1.94;100.00
49645;BME280;36494;50.730;-1.932;2024-03-02T06:44:59;98293.38;;;2.00;100.00
49645;BME280;36494;50.730;-1.932;2024-03-02T06:47:24;98296.93;;;2.05;100.00
49645;BME280;36494;50.730;-1.932;2024-03-02T06:49:50;98295.45;;;2.09;100.00
49645;BME280;36494;50.730;-1.932;2024-03-02T06:52:19;98296.03;;;2.12;100.00
49645;BME280;36494;50.730;-1.932;2024-03-02T06:54:41;98298.26;;;2.15;100.00
49645;BME280;36494;50.730;-1.932;2024-03-02T06:57:07;98298.73;;;2.20;100.00
49645;BME280;36494;50.730;-1.932;2024-03-02T06:59:34;98305.01;;;2.22;100.00
49645;BME280;36494;50.730;-1.932;2024-03-02T07:01:59;98311.27;;;2.26;100.00
49645;BME280;36494;50.730;-1.932;2024-03-02T07:04:25;98310.31;;;2.32;100.00
49645;BME280;36494;50.730;-1.932;2024-03-02T07:06:51;98315.10;;;2.34;100.00
49645;BME280;36494;50.730;-1.932;2024-03-02T07:09:16;98324.38;;;2.40;100.00
49645;BME280;36494;50.730;-1.932;2024-03-02T07:11:42;98332.65;;;2.43;100.00
49645;BME280;36494;50.730;-1.932;2024-03-02T07:14:08;98337.75;;;2.49;100.00
49645;BME280;36494;50.730;-1.932;2024-03-02T07:16:34;98343.03;;;2.44;100.00
49645;BME280;36494;50.730;-1.932;2024-03-02T07:19:00;98338.92;;;2.50;100.00
49645;BME280;36494;50.730;-1.932;2024-03-02T07:21:25;98336.22;;;2.54;100.00
49645;BME280;36494;50.730;-1.932;2024-03-02T07:23:52;98336.70;;;2.59;100.00
49645;BME280;36494;50.730;-1.932;2024-03-02T07:26:17;98337.76;;;2.61;100.00
49645;BME280;36494;50.730;-1.932;2024-03-02T07:28:43;98343.50;;;2.62;100.00
49645;BME280;36494;50.730;-1.932;2024-03-02T07:31:08;98343.26;;;2.67;100.00
49645;BME280;36494;50.730;-1.932;2024-03-02T07:33:34;98341.34;;;2.70;100.00
49645;BME280;36494;50.730;-1.932;2024-03-02T07:36:00;98341.66;;;2.68;100.00
49645;BME280;36494;50.730;-1.932;2024-03-02T07:38:26;98346.85;;;2.75;100.00
49645;BME280;36494;50.730;-1.932;2024-03-02T07:40:51;98349.37;;;2.79;100.00
49645;BME280;36494;50.730;-1.932;2024-03-02T07:43:17;98353.15;;;2.84;100.00
49645;BME280;36494;50.730;-1.932;2024-03-02T07:45:43;98356.27;;;2.88;100.00
49645;BME280;36494;50.730;-1.932;2024-03-02T07:48:08;98360.77;;;2.87;100.00
49645;BME280;36494;50.730;-1.932;2024-03-02T07:50:35;98366.66;;;2.86;100.00
49645;BME280;36494;50.730;-1.932;2024-03-02T07:53:01;98369.04;;;2.98;100.00
49645;BME280;36494;50.730;-1.932;2024-03-02T07:55:26;98370.00;;;2.98;100.00
49645;BME280;36494;50.730;-1.932;2024-03-02T07:57:52;98371.73;;;3.05;100.00
49645;BME280;36494;50.730;-1.932;2024-03-02T08:00:18;98373.99;;;3.09;100.00
49645;BME280;36494;50.730;-1.932;2024-03-02T08:02:44;98375.48;;;3.07;100.00
49645;BME280;36494;50.730;-1.932;2024-03-02T08:05:11;98379.80;;;3.14;100.00
49645;BME280;36494;50.730;-1.932;2024-03-02T08:07:35;98384.48;;;3.15;100.00
49645;BME280;36494;50.730;-1.932;2024-03-02T08:10:00;98385.35;;;3.20;100.00
49645;BME280;36494;50.730;-1.932;2024-03-02T08:12:26;98386.91;;;3.21;100.00
49645;BME280;36494;50.730;-1.932;2024-03-02T08:14:52;98389.04;;;3.27;100.00
49645;BME280;36494;50.730;-1.932;2024-03-02T08:17:21;98391.00;;;3.24;100.00
49645;BME280;36494;50.730;-1.932;2024-03-02T08:19:44;98393.71;;;3.30;100.00
49645;BME280;36494;50.730;-1.932;2024-03-02T08:22:10;98400.64;;;3.31;100.00
49645;BME280;36494;50.730;-1.932;2024-03-02T08:24:36;98404.04;;;3.30;100.00
49645;BME280;36494;50.730;-1.932;2024-03-02T08:27:01;98406.96;;;3.34;100.00
49645;BME280;36494;50.730;-1.932;2024-03-02T08:29:29;98407.40;;;3.36;100.00
49645;BME280;36494;50.730;-1.932;2024-03-02T08:31:53;98410.80;;;3.43;100.00
49645;BME280;36494;50.730;-1.932;2024-03-02T08:34:18;98414.87;;;3.48;100.00
49645;BME280;36494;50.730;-1.932;2024-03-02T08:36:44;98416.89;;;3.44;100.00
49645;BME280;36494;50.730;-1.932;2024-03-02T08:39:10;98418.05;;;3.52;100.00
49645;BME280;36494;50.730;-1.932;2024-03-02T08:41:37;98421.09;;;3.62;100.00
49645;BME280;36494;50.730;-1.932;2024-03-02T08:44:02;98424.23;;;3.63;100.00
49645;BME280;36494;50.730;-1.932;2024-03-02T08:46:28;98423.56;;;3.70;100.00
49645;BME280;36494;50.730;-1.932;2024-03-02T08:48:53;98422.91;;;3.71;100.00
49645;BME280;36494;50.730;-1.932;2024-03-02T08:51:19;98427.02;;;3.74;100.00
49645;BME280;36494;50.730;-1.932;2024-03-02T08:53:48;98427.97;;;3.78;100.00
49645;BME280;36494;50.730;-1.932;2024-03-02T08:56:10;98435.16;;;3.78;100.00
49645;BME280;36494;50.730;-1.932;2024-03-02T08:58:36;98435.22;;;3.73;100.00
49645;BME280;36494;50.730;-1.932;2024-03-02T09:01:02;98437.95;;;3.87;100.00
49645;BME280;36494;50.730;-1.932;2024-03-02T09:03:27;98440.60;;;3.86;100.00
49645;BME280;36494;50.730;-1.932;2024-03-02T09:05:54;98448.51;;;3.84;100.00
49645;BME280;36494;50.730;-1.932;2024-03-02T09:08:20;98448.40;;;3.80;100.00
49645;BME280;36494;50.730;-1.932;2024-03-02T09:10:45;98453.13;;;3.78;100.00
49645;BME280;36494;50.730;-1.932;2024-03-02T09:13:11;98455.20;;;3.86;100.00
49645;BME280;36494;50.730;-1.932;2024-03-02T09:15:37;98456.66;;;3.82;100.00
49645;BME280;36494;50.730;-1.932;2024-03-02T09:18:03;98459.79;;;3.91;100.00
49645;BME280;36494;50.730;-1.932;2024-03-02T09:20:29;98461.44;;;3.97;100.00
49645;BME280;36494;50.730;-1.932;2024-03-02T09:22:54;98467.57;;;3.95;100.00
49645;BME280;36494;50.730;-1.932;2024-03-02T09:25:20;98471.56;;;4.00;100.00
49645;BME280;36494;50.730;-1.932;2024-03-02T09:27:45;98473.95;;;4.04;100.00
49645;BME280;36494;50.730;-1.932;2024-03-02T09:30:13;98474.94;;;4.15;100.00
49645;BME280;36494;50.730;-1.932;2024-03-02T09:32:38;98474.01;;;4.00;100.00
49645;BME280;36494;50.730;-1.932;2024-03-02T09:35:04;98479.08;;;4.07;100.00
49645;BME280;36494;50.730;-1.932;2024-03-02T09:37:29;98478.52;;;4.20;100.00
49645;BME280;36494;50.730;-1.932;2024-03-02T09:39:55;98476.59;;;4.22;100.00
49645;BME280;36494;50.730;-1.932;2024-03-02T09:42:21;98476.28;;;4.30;100.00
49645;BME280;36494;50.730;-1.932;2024-03-02T09:44:47;98476.04;;;4.38;100.00
49645;BME280;36494;50.730;-1.932;2024-03-02T09:47:12;98475.02;;;4.33;100.00
49645;BME280;36494;50.730;-1.932;2024-03-02T09:49:37;98476.53;;;4.37;100.00
49645;BME280;36494;50.730;-1.932;2024-03-02T09:52:05;98470.15;;;4.31;100.00
49645;BME280;36494;50.730;-1.932;2024-03-02T09:54:34;98470.95;;;4.42;100.00
49645;BME280;36494;50.730;-1.932;2024-03-02T09:56:55;98471.62;;;4.41;100.00
49645;BME280;36494;50.730;-1.932;2024-03-02T09:59:21;98475.01;;;4.50;100.00
49645;BME280;36494;50.730;-1.932;2024-03-02T10:01:56;98476.09;;;4.58;100.00
49645;BME280;36494;50.730;-1.932;2024-03-02T10:04:12;98478.44;;;4.67;100.00
49645;BME280;36494;50.730;-1.932;2024-03-02T10:06:38;98481.91;;;4.78;100.00
49645;BME280;36494;50.730;-1.932;2024-03-02T10:09:04;98482.17;;;4.85;100.00
49645;BME280;36494;50.730;-1.932;2024-03-02T10:11:31;98485.32;;;4.85;100.00
49645;BME280;36494;50.730;-1.932;2024-03-02T10:14:05;98483.32;;;4.86;100.00
49645;BME280;36494;50.730;-1.932;2024-03-02T10:16:20;98488.54;;;4.88;100.00
49645;BME280;36494;50.730;-1.932;2024-03-02T10:18:47;98494.36;;;4.95;100.00
49645;BME280;36494;50.730;-1.932;2024-03-02T10:21:13;98492.85;;;4.98;100.00
49645;BME280;36494;50.730;-1.932;2024-03-02T10:23:39;98499.55;;;5.01;100.00
49645;BME280;36494;50.730;-1.932;2024-03-02T10:26:12;98502.77;;;5.12;100.00
49645;BME280;36494;50.730;-1.932;2024-03-02T10:28:30;98504.18;;;5.22;100.00
49645;BME280;36494;50.730;-1.932;2024-03-02T10:30:56;98506.96;;;5.41;100.00
49645;BME280;36494;50.730;-1.932;2024-03-02T10:33:21;98508.42;;;5.41;100.00
49645;BME280;36494;50.730;-1.932;2024-03-02T10:35:49;98510.98;;;5.35;100.00
49645;BME280;36494;50.730;-1.932;2024-03-02T10:38:13;98513.68;;;5.24;100.00
49645;BME280;36494;50.730;-1.932;2024-03-02T10:40:38;98518.83;;;5.38;100.00
49645;BME280;36494;50.730;-1.932;2024-03-02T10:43:05;98516.58;;;5.33;100.00
49645;BME280;36494;50.730;-1.932;2024-03-02T10:45:30;98521.69;;;5.31;100.00
49645;BME280;36494;50.730;-1.932;2024-03-02T10:47:56;98529.93;;;5.46;100.00
49645;BME280;36494;50.730;-1.932;2024-03-02T10:50:22;98525.67;;;5.42;100.00
49645;BME280;36494;50.730;-1.932;2024-03-02T10:52:47;98531.86;;;5.50;100.00
49645;BME280;36494;50.730;-1.932;2024-03-02T10:55:16;98531.56;;;5.51;100.00
49645;BME280;36494;50.730;-1.932;2024-03-02T10:57:42;98536.51;;;5.94;100.00
49645;BME280;36494;50.730;-1.932;2024-03-02T11:00:06;98532.00;;;6.27;100.00
49645;BME280;36494;50.730;-1.932;2024-03-02T11:02:31;98538.40;;;6.78;100.00
49645;BME280;36494;50.730;-1.932;2024-03-02T11:04:56;98533.88;;;6.97;100.00
49645;BME280;36494;50.730;-1.932;2024-03-02T11:07:27;98530.75;;;7.25;100.00
49645;BME280;36494;50.730;-1.932;2024-03-02T11:09:54;98535.91;;;7.31;100.00
49645;BME280;36494;50.730;-1.932;2024-03-02T11:12:19;98539.08;;;6.95;100.00
49645;BME280;36494;50.730;-1.932;2024-03-02T11:14:41;98545.63;;;6.92;100.00
49645;BME280;36494;50.730;-1.932;2024-03-02T11:17:05;98549.10;;;6.66;100.00
49645;BME280;36494;50.730;-1.932;2024-03-02T11:19:31;98552.15;;;6.64;100.00
49645;BME280;36494;50.730;-1.932;2024-03-02T11:21:56;98555.35;;;7.07;100.00
49645;BME280;36494;50.730;-1.932;2024-03-02T11:24:32;98552.36;;;7.68;100.00
49645;BME280;36494;50.730;-1.932;2024-03-02T11:26:48;98556.72;;;7.49;100.00
49645;BME280;36494;50.730;-1.932;2024-03-02T11:36:31;98563.58;;;6.84;100.00
49645;BME280;36494;50.730;-1.932;2024-03-02T11:38:56;98569.98;;;6.78;100.00
49645;BME280;36494;50.730;-1.932;2024-03-02T11:41:23;98573.96;;;6.75;100.00
49645;BME280;36494;50.730;-1.932;2024-03-02T11:43:48;98574.07;;;6.73;100.00
49645;BME280;36494;50.730;-1.932;2024-03-02T11:46:14;98580.17;;;6.87;100.00
49645;BME280;36494;50.730;-1.932;2024-03-02T11:48:39;98579.17;;;6.97;100.00
49645;BME280;36494;50.730;-1.932;2024-03-02T11:51:05;98581.17;;;6.85;100.00
49645;BME280;36494;50.730;-1.932;2024-03-02T11:53:30;98579.92;;;6.88;100.00
49645;BME280;36494;50.730;-1.932;2024-03-02T11:55:59;98584.64;;;7.05;100.00
49645;BME280;36494;50.730;-1.932;2024-03-02T11:58:23;98586.93;;;6.98;100.00
49645;BME280;36494;50.730;-1.932;2024-03-02T12:00:50;98582.91;;;6.72;100.00
49645;BME280;36494;50.730;-1.932;2024-03-02T12:03:14;98586.05;;;6.79;100.00
49645;BME280;36494;50.730;-1.932;2024-03-02T12:05:39;98583.08;;;6.94;100.00
49645;BME280;36494;50.730;-1.932;2024-03-02T12:08:06;98576.16;;;7.48;100.00
49645;BME280;36494;50.730;-1.932;2024-03-02T12:10:32;98576.76;;;7.78;100.00
49645;BME280;36494;50.730;-1.932;2024-03-02T12:12:57;98576.25;;;7.78;100.00
49645;BME280;36494;50.730;-1.932;2024-03-02T12:15:23;98576.86;;;8.04;100.00
49645;BME280;36494;50.730;-1.932;2024-03-02T12:17:47;98575.50;;;8.40;100.00
49645;BME280;36494;50.730;-1.932;2024-03-02T12:20:14;98575.04;;;8.60;100.00
49645;BME280;36494;50.730;-1.932;2024-03-02T12:22:40;98571.64;;;8.61;100.00
49645;BME280;36494;50.730;-1.932;2024-03-02T12:25:06;98568.59;;;8.28;100.00
49645;BME280;36494;50.730;-1.932;2024-03-02T12:27:31;98575.06;;;8.25;100.00
49645;BME280;36494;50.730;-1.932;2024-03-02T12:29:57;98576.93;;;8.50;100.00
49645;BME280;36494;50.730;-1.932;2024-03-02T12:32:25;98570.73;;;8.30;100.00
49645;BME280;36494;50.730;-1.932;2024-03-02T12:34:48;98572.37;;;8.30;100.00
49645;BME280;36494;50.730;-1.932;2024-03-02T12:37:13;98576.93;;;8.25;100.00
49645;BME280;36494;50.730;-1.932;2024-03-02T12:39:39;98579.19;;;8.06;100.00
49645;BME280;36494;50.730;-1.932;2024-03-02T12:42:05;98580.60;;;7.75;100.00
49645;BME280;36494;50.730;-1.932;2024-03-02T12:44:31;98580.92;;;7.69;100.00
49645;BME280;36494;50.730;-1.932;2024-03-02T12:46:57;98581.85;;;7.58;100.00
49645;BME280;36494;50.730;-1.932;2024-03-02T12:49:22;98583.75;;;7.46;100.00